Fairbanks International Airport
PAFA : now visible

Airfield :











YOU CAN JOIN US ON...

 
LOGIN :

Register | Disclaimer

   EN    FR    IT 

 









Legend :    VFR   Marginal VFR   IFR   Intensive IFR   Very Intensive IFR
Visi :
Ceiling :
>= 8 km
>= 3000ft
5 to 8 km
1000 to 3000 ft
1500m to 5 km
500 to 1000 ft
800 to 1500m
200 to 500 ft
< 800m
< 200 ft
Symbols :   Thunderstorms  Fog  Heavy snow  Heavy precipitations  Wind > 20 kt






- Airport Elevation : 439 ft
- IATA code : FAI


PAFA - Fairbanks International

CURRENT METAR :
  • 301453Z 06011KT 10SM BKN100 BKN200 11/M03 A2976 RMK AO2 SLP083 T01111033 56026

EXPIRED METARs :
  • 301353Z 07010KT 10SM BKN100 BKN150 12/M03 A2979 RMK AO2 SLP091 T01171028
  • 301253Z 07011KT 10SM BKN110 BKN200 12/M03 A2981 RMK AO2 SLP099 T01171028

TAF PAFA
Valid from the 30 at 12:00 until the 01 at 18:00 UTC


301123Z 3012/0118 07008KT P6SM BKN150 BKN200 WS015/13040KT
FM302100 05009G15KT P6SM FEW060 BKN150
FM010600 04005KT P6SM BKN250
PAZA FIR / North America



MET'MAP, your aeronautical weather chart ! - Copyright ORBIFLY December 2007 - Disclaimer

ORBIFLY MET'MAP TEAM :

Programming & Development : Alexandra Zaïnal
Concept & original design : Baudouin d'Aumeries
Assistance for programming : Marc-Olivier Méhu
Technical & hardware support : Manuel Goepfert

Contact : metmap@orbifly.com




SOURCES & CREDITS :

   NOAA       Earth
Advisory